createdAt,value
2018-04-15T00:02:05.348Z,99.90
2018-04-15T00:04:38.914Z,99.90
2018-04-15T00:07:12.452Z,99.50
2018-04-15T00:09:46.020Z,99.60
2018-04-15T00:12:19.614Z,99.50
2018-04-15T00:14:53.208Z,98.20
2018-04-15T00:17:26.802Z,98.40
2018-04-15T00:20:00.759Z,97.80
2018-04-15T00:22:35.264Z,99.20
2018-04-15T00:25:08.779Z,99.10
2018-04-15T00:27:42.324Z,98.30
2018-04-15T00:30:16.780Z,96.60
2018-04-15T00:32:51.084Z,96.80
2018-04-15T00:35:24.826Z,96.80
2018-04-15T00:37:58.388Z,97.50
2018-04-15T00:40:31.950Z,98.00
2018-04-15T00:43:05.431Z,98.40
2018-04-15T00:45:38.990Z,97.80
2018-04-15T00:48:12.529Z,96.80
2018-04-15T00:50:46.025Z,96.50
2018-04-15T00:53:19.605Z,97.10
2018-04-15T00:55:53.198Z,99.90
2018-04-15T00:58:26.923Z,99.90
2018-04-15T01:01:00.494Z,99.90
2018-04-15T01:03:34.017Z,99.90
2018-04-15T01:06:07.564Z,99.70
2018-04-15T01:08:41.265Z,99.80
2018-04-15T01:11:14.770Z,99.80
2018-04-15T01:13:49.119Z,98.70
2018-04-15T01:16:23.641Z,98.30
2018-04-15T01:18:57.379Z,98.30
2018-04-15T01:21:30.941Z,98.10
2018-04-15T01:24:05.256Z,98.90
2018-04-15T01:26:39.703Z,98.60
2018-04-15T01:29:13.306Z,98.60
2018-04-15T01:31:46.871Z,99.20
2018-04-15T01:34:20.458Z,99.90
2018-04-15T01:36:54.086Z,99.90
2018-04-15T01:39:27.692Z,99.90
2018-04-15T01:42:01.424Z,99.90
2018-04-15T01:44:34.973Z,99.90
2018-04-15T01:47:08.585Z,99.90
2018-04-15T01:49:42.310Z,99.90
2018-04-15T01:52:15.918Z,99.50
2018-04-15T01:54:50.208Z,99.90
2018-04-15T01:57:24.532Z,99.90
2018-04-15T01:59:58.850Z,99.90
2018-04-15T02:02:32.559Z,99.90
2018-04-15T02:05:06.127Z,99.90
2018-04-15T02:07:39.757Z,99.90
2018-04-15T02:10:13.349Z,99.90
2018-04-15T02:12:46.926Z,99.90
2018-04-15T02:15:22.149Z,99.90
2018-04-15T02:17:56.047Z,99.90
2018-04-15T02:20:29.836Z,99.90
2018-04-15T02:23:03.477Z,99.90
2018-04-15T02:25:37.272Z,99.90
2018-04-15T02:28:10.833Z,99.90
2018-04-15T02:30:44.440Z,99.90
2018-04-15T02:33:17.990Z,99.90
2018-04-15T02:35:51.597Z,99.90
2018-04-15T02:38:25.208Z,99.90
2018-04-15T02:40:58.802Z,99.50
2018-04-15T02:43:32.334Z,99.90
2018-04-15T02:46:05.899Z,99.90
2018-04-15T02:48:39.506Z,99.90
2018-04-15T02:51:13.016Z,99.90
2018-04-15T02:53:46.640Z,99.90
2018-04-15T02:56:20.206Z,99.90
2018-04-15T02:58:53.911Z,99.90
2018-04-15T03:01:27.434Z,99.90
2018-04-15T03:04:01.003Z,99.90
2018-04-15T03:06:34.615Z,99.90
2018-04-15T03:09:08.218Z,99.90
2018-04-15T03:11:41.838Z,99.90
2018-04-15T03:14:15.330Z,99.90
2018-04-15T03:16:49.034Z,99.90
2018-04-15T03:19:22.646Z,99.90
2018-04-15T03:21:56.225Z,99.90
2018-04-15T03:24:29.958Z,99.90
2018-04-15T03:27:03.550Z,99.90
2018-04-15T03:29:37.207Z,99.90
2018-04-15T03:32:10.830Z,99.90
2018-04-15T03:34:44.524Z,99.90
2018-04-15T03:37:18.270Z,99.90
2018-04-15T03:39:51.811Z,99.90
2018-04-15T03:42:25.432Z,99.90
2018-04-15T03:44:59.019Z,99.90
2018-04-15T03:47:32.564Z,99.90
2018-04-15T03:50:06.120Z,99.90
2018-04-15T03:52:39.736Z,99.90
2018-04-15T03:55:13.329Z,99.90
2018-04-15T03:57:46.890Z,99.90
2018-04-15T04:00:20.556Z,99.90
2018-04-15T04:02:54.677Z,99.90
2018-04-15T04:05:28.352Z,99.90
2018-04-15T04:08:01.949Z,99.90
2018-04-15T04:10:35.443Z,99.90
2018-04-15T04:13:09.035Z,99.90
2018-04-15T04:15:43.454Z,99.90
2018-04-15T04:18:29.019Z,99.90
2018-04-15T04:21:14.510Z,99.90
2018-04-15T04:24:00.816Z,99.90
2018-04-15T04:26:35.156Z,99.90
2018-04-15T04:29:08.660Z,99.90
2018-04-15T04:31:42.347Z,99.90
2018-04-15T04:34:15.866Z,99.90
2018-04-15T04:36:49.430Z,99.90
2018-04-15T04:39:22.991Z,99.90
2018-04-15T04:41:56.534Z,99.90
2018-04-15T04:44:30.309Z,99.90
2018-04-15T04:47:04.667Z,99.90
2018-04-15T04:49:38.259Z,99.90
2018-04-15T04:52:12.699Z,99.90
2018-04-15T04:54:46.436Z,99.90
2018-04-15T04:57:20.004Z,99.90
2018-04-15T04:59:53.496Z,99.90
2018-04-15T05:02:27.071Z,99.90
2018-04-15T05:05:00.702Z,99.90
2018-04-15T05:07:34.444Z,99.90
2018-04-15T05:10:07.923Z,99.90
2018-04-15T05:12:42.313Z,99.90
2018-04-15T05:15:16.051Z,99.90
2018-04-15T05:17:49.630Z,99.90
2018-04-15T05:20:23.220Z,99.90
2018-04-15T05:22:56.723Z,99.90
2018-04-15T05:25:30.319Z,99.90
2018-04-15T05:28:04.739Z,99.90
2018-04-15T05:30:38.334Z,99.90
2018-04-15T05:33:11.857Z,99.90
2018-04-15T05:35:45.367Z,99.90
2018-04-15T05:38:18.929Z,99.90
2018-04-15T05:40:52.528Z,99.90
2018-04-15T05:43:26.126Z,99.90
2018-04-15T05:45:59.843Z,99.90
2018-04-15T05:48:33.432Z,99.90
2018-04-15T05:51:07.765Z,99.90
2018-04-15T05:53:41.347Z,99.90
2018-04-15T05:56:14.973Z,99.90
2018-04-15T05:58:48.448Z,99.90
2018-04-15T06:01:22.686Z,99.90
2018-04-15T06:03:56.997Z,99.90
2018-04-15T06:06:31.314Z,99.90
2018-04-15T06:09:05.618Z,99.90
2018-04-15T06:11:39.258Z,99.90
2018-04-15T06:14:12.859Z,99.90
2018-04-15T06:16:46.431Z,99.90
2018-04-15T06:19:19.970Z,99.90
2018-04-15T06:21:53.526Z,99.90
2018-04-15T06:24:27.041Z,99.90
2018-04-15T06:27:00.636Z,99.90
2018-04-15T06:29:34.238Z,99.90
2018-04-15T06:32:07.720Z,99.90
2018-04-15T06:34:41.329Z,99.90
2018-04-15T06:37:15.068Z,99.90
2018-04-15T06:39:48.684Z,99.90
2018-04-15T06:42:22.307Z,99.90
2018-04-15T06:44:55.860Z,99.90
2018-04-15T06:47:29.563Z,99.90
2018-04-15T06:50:03.144Z,99.90
2018-04-15T06:52:36.740Z,99.90
2018-04-15T06:55:10.259Z,99.90
2018-04-15T06:57:43.821Z,99.50
2018-04-15T07:00:17.454Z,99.30
2018-04-15T07:02:51.020Z,98.50
2018-04-15T07:05:25.364Z,97.20
2018-04-15T07:07:58.969Z,97.20
2018-04-15T07:10:32.568Z,95.60
2018-04-15T07:13:06.086Z,94.70
2018-04-15T07:15:39.904Z,93.60
2018-04-15T07:18:13.509Z,93.10
2018-04-15T07:20:47.047Z,93.00
2018-04-15T07:23:20.651Z,93.10
2018-04-15T07:25:54.240Z,92.70
2018-04-15T07:28:27.963Z,92.10
2018-04-15T07:31:01.568Z,91.60
2018-04-15T07:33:35.072Z,89.20
2018-04-15T07:36:08.684Z,87.60
2018-04-15T07:38:42.267Z,85.20
2018-04-15T07:41:15.799Z,82.90
2018-04-15T07:43:49.390Z,82.90
2018-04-15T07:46:22.979Z,80.70
2018-04-15T07:48:56.570Z,80.00
2018-04-15T07:51:30.114Z,77.40
2018-04-15T07:54:03.697Z,75.40
2018-04-15T07:56:37.242Z,73.90
2018-04-15T07:59:10.852Z,72.40
2018-04-15T08:01:44.694Z,72.90
2018-04-15T08:04:18.314Z,72.20
2018-04-15T08:06:51.883Z,68.60
2018-04-15T08:09:25.439Z,67.20
2018-04-15T08:11:59.021Z,69.10
2018-04-15T08:14:32.577Z,69.70
2018-04-15T08:17:06.187Z,69.80
2018-04-15T08:19:40.515Z,69.90
2018-04-15T08:22:14.928Z,69.20
2018-04-15T08:24:49.354Z,69.50
2018-04-15T08:27:23.021Z,69.50
2018-04-15T08:29:56.582Z,69.30
2018-04-15T08:32:30.162Z,69.80
2018-04-15T08:35:03.869Z,68.50
2018-04-15T08:37:37.574Z,69.10
2018-04-15T08:40:11.067Z,69.80
2018-04-15T08:42:44.632Z,69.90
2018-04-15T08:45:18.246Z,69.70
2018-04-15T08:47:51.759Z,69.10
2018-04-15T08:50:25.351Z,70.30
2018-04-15T08:52:58.878Z,67.40
2018-04-15T08:55:32.420Z,66.40
2018-04-15T08:58:06.019Z,67.10
2018-04-15T09:00:39.606Z,65.20
2018-04-15T09:03:13.863Z,65.80
2018-04-15T09:05:47.382Z,65.70
2018-04-15T09:08:20.892Z,65.50
2018-04-15T09:10:54.438Z,64.00
2018-04-15T09:13:27.944Z,63.60
2018-04-15T09:16:01.475Z,64.60
2018-04-15T09:18:35.047Z,64.70
2018-04-15T09:21:08.658Z,63.80
2018-04-15T09:23:42.380Z,62.40
2018-04-15T09:26:15.966Z,62.80
2018-04-15T09:28:49.513Z,60.20
2018-04-15T09:31:23.082Z,60.20
2018-04-15T09:33:56.665Z,59.00
2018-04-15T09:36:30.256Z,59.70
2018-04-15T09:39:03.865Z,58.50
2018-04-15T09:41:37.431Z,57.90
2018-04-15T09:44:10.983Z,58.50
2018-04-15T09:46:45.390Z,58.80
2018-04-15T09:49:19.800Z,59.20
2018-04-15T09:51:53.337Z,59.20
2018-04-15T09:54:26.890Z,58.60
2018-04-15T09:57:00.432Z,58.20
2018-04-15T09:59:33.978Z,58.10
2018-04-15T10:02:07.567Z,58.50
2018-04-15T10:04:41.323Z,58.70
2018-04-15T10:07:15.019Z,58.10
2018-04-15T10:09:49.312Z,57.30
2018-04-15T10:12:22.818Z,57.30
2018-04-15T10:14:56.430Z,57.60
2018-04-15T10:17:30.003Z,57.40
2018-04-15T10:20:03.632Z,57.60
2018-04-15T10:22:37.205Z,57.60
2018-04-15T10:25:10.886Z,58.00
2018-04-15T10:27:44.445Z,57.30
2018-04-15T10:30:17.964Z,56.60
2018-04-15T10:32:52.254Z,56.20
2018-04-15T10:35:25.863Z,56.10
2018-04-15T10:37:59.432Z,55.20
2018-04-15T10:40:33.008Z,55.50
2018-04-15T10:43:07.268Z,55.80
2018-04-15T10:45:40.769Z,55.80
2018-04-15T10:48:14.346Z,56.00
2018-04-15T10:50:47.945Z,55.80
2018-04-15T10:53:21.498Z,55.90
2018-04-15T10:55:55.155Z,55.50
2018-04-15T10:58:28.715Z,56.20
2018-04-15T11:01:02.384Z,56.10
2018-04-15T11:03:35.965Z,55.70
2018-04-15T11:06:09.553Z,56.20
2018-04-15T11:08:43.176Z,56.10
2018-04-15T11:11:16.897Z,57.00
2018-04-15T11:13:50.483Z,57.00
2018-04-15T11:16:24.075Z,57.30
2018-04-15T11:18:58.382Z,57.50
2018-04-15T11:21:32.705Z,57.60
2018-04-15T11:24:06.267Z,57.50
2018-04-15T11:26:39.903Z,57.80
2018-04-15T11:29:13.525Z,57.70
2018-04-15T11:31:47.271Z,57.60
2018-04-15T11:34:20.939Z,56.30
2018-04-15T11:36:54.529Z,56.40
2018-04-15T11:39:28.107Z,55.90
2018-04-15T11:42:01.723Z,56.20
2018-04-15T11:44:35.234Z,55.90
2018-04-15T11:47:08.775Z,55.00
2018-04-15T11:49:42.437Z,54.50
2018-04-15T11:52:16.045Z,54.70
2018-04-15T11:54:49.664Z,55.10
2018-04-15T11:57:23.256Z,54.80
2018-04-15T11:59:56.809Z,54.10
2018-04-15T12:02:30.418Z,54.40
2018-04-15T12:05:04.833Z,53.70
2018-04-15T12:07:38.340Z,53.70
2018-04-15T12:10:12.039Z,54.60
2018-04-15T12:12:45.575Z,54.10
2018-04-15T12:15:19.860Z,53.20
2018-04-15T12:17:53.557Z,53.20
2018-04-15T12:20:27.141Z,52.80
2018-04-15T12:23:01.487Z,51.70
2018-04-15T12:25:35.066Z,51.70
2018-04-15T12:28:08.661Z,52.60
2018-04-15T12:30:42.294Z,51.80
2018-04-15T12:33:16.627Z,52.10
2018-04-15T12:35:50.200Z,52.10
2018-04-15T12:38:23.670Z,51.30
2018-04-15T12:40:57.221Z,52.00
2018-04-15T12:43:30.780Z,51.60
2018-04-15T12:46:05.111Z,51.90
2018-04-15T12:48:38.817Z,51.80
2018-04-15T12:51:12.324Z,51.60
2018-04-15T12:53:45.895Z,51.30
2018-04-15T12:56:19.448Z,51.50
2018-04-15T12:58:53.106Z,51.10
2018-04-15T13:01:26.812Z,50.00
2018-04-15T13:04:00.534Z,51.10
2018-04-15T13:06:34.144Z,51.10
2018-04-15T13:09:07.614Z,51.10
2018-04-15T13:11:41.191Z,51.10
2018-04-15T13:14:14.758Z,51.00
2018-04-15T13:16:48.423Z,51.80
2018-04-15T13:19:21.938Z,51.10
2018-04-15T13:21:55.515Z,51.60
2018-04-15T13:24:29.105Z,51.60
2018-04-15T13:27:03.472Z,52.50
2018-04-15T13:29:37.947Z,52.80
2018-04-15T13:32:11.561Z,52.80
2018-04-15T13:34:45.834Z,52.60
2018-04-15T13:37:19.420Z,52.60
2018-04-15T13:39:52.976Z,52.80
2018-04-15T13:42:26.716Z,52.10
2018-04-15T13:45:00.388Z,51.80
2018-04-15T13:47:34.809Z,51.20
2018-04-15T13:50:08.540Z,51.20
2018-04-15T13:52:42.100Z,50.60
2018-04-15T13:55:15.709Z,51.40
2018-04-15T13:57:49.312Z,51.40
2018-04-15T14:00:23.744Z,50.60
2018-04-15T14:02:57.451Z,50.50
2018-04-15T14:05:31.155Z,50.90
2018-04-15T14:08:04.975Z,50.90
2018-04-15T14:10:38.726Z,50.80
2018-04-15T14:13:12.295Z,50.60
2018-04-15T14:15:45.871Z,50.70
2018-04-15T14:18:19.475Z,50.50
2018-04-15T14:20:53.007Z,50.90
2018-04-15T14:23:26.563Z,50.30
2018-04-15T14:26:00.963Z,51.60
2018-04-15T14:28:34.690Z,51.20
2018-04-15T14:31:08.200Z,51.50
2018-04-15T14:33:41.794Z,51.90
2018-04-15T14:36:15.520Z,52.20
2018-04-15T14:38:49.799Z,52.10
2018-04-15T14:41:23.501Z,52.10
2018-04-15T14:43:57.083Z,52.30
2018-04-15T14:46:30.648Z,52.50
2018-04-15T14:49:04.191Z,52.80
2018-04-15T14:51:38.543Z,53.20
2018-04-15T14:54:12.266Z,53.10
2018-04-15T14:56:45.901Z,54.00
2018-04-15T14:59:19.398Z,54.20
2018-04-15T15:01:52.933Z,54.60
2018-04-15T15:04:26.464Z,55.00
2018-04-15T15:07:00.951Z,55.50
2018-04-15T15:09:35.353Z,56.40
2018-04-15T15:12:09.660Z,56.60
2018-04-15T15:14:43.981Z,56.60
2018-04-15T15:17:18.537Z,57.20
2018-04-15T15:19:52.207Z,57.20
2018-04-15T15:22:26.035Z,57.20
2018-04-15T15:24:59.855Z,57.20
2018-04-15T15:27:33.627Z,57.60
2018-04-15T15:30:07.417Z,57.60
2018-04-15T15:32:41.044Z,58.00
2018-04-15T15:35:14.702Z,58.00
2018-04-15T15:37:48.327Z,58.10
2018-04-15T15:40:22.012Z,57.60
2018-04-15T15:42:55.618Z,57.60
2018-04-15T15:45:29.247Z,57.50
2018-04-15T15:48:02.842Z,57.30
2018-04-15T15:50:36.546Z,57.00
2018-04-15T15:53:10.128Z,57.00
2018-04-15T15:55:43.745Z,56.90
2018-04-15T15:58:17.250Z,56.60
2018-04-15T16:00:50.779Z,57.00
2018-04-15T16:03:24.362Z,56.70
2018-04-15T16:05:57.940Z,57.40
2018-04-15T16:08:31.506Z,58.70
2018-04-15T16:11:06.072Z,58.90
2018-04-15T16:13:39.752Z,58.30
2018-04-15T16:16:13.335Z,58.00
2018-04-15T16:18:46.993Z,58.10
2018-04-15T16:21:20.507Z,58.30
2018-04-15T16:23:54.152Z,58.30
2018-04-15T16:26:28.493Z,58.10
2018-04-15T16:29:02.189Z,58.00
2018-04-15T16:31:35.717Z,59.50
2018-04-15T16:34:09.304Z,59.10
2018-04-15T16:36:42.887Z,58.80
2018-04-15T16:39:16.428Z,59.20
2018-04-15T16:41:49.962Z,59.30
2018-04-15T16:44:23.599Z,58.90
2018-04-15T16:46:57.099Z,59.20
2018-04-15T16:49:30.604Z,59.60
2018-04-15T16:52:04.098Z,59.60
2018-04-15T16:54:37.783Z,60.10
2018-04-15T16:57:11.432Z,60.30
2018-04-15T16:59:44.959Z,59.70
2018-04-15T17:02:19.300Z,59.70
2018-04-15T17:04:52.894Z,59.70
2018-04-15T17:07:26.431Z,59.80
2018-04-15T17:09:59.984Z,59.80
2018-04-15T17:12:33.648Z,59.80
2018-04-15T17:15:07.228Z,59.50
2018-04-15T17:17:40.836Z,59.50
2018-04-15T17:20:14.403Z,60.90
2018-04-15T17:22:48.012Z,62.20
2018-04-15T17:25:21.612Z,63.10
2018-04-15T17:27:55.510Z,63.10
2018-04-15T17:30:29.220Z,64.30
2018-04-15T17:33:02.807Z,65.50
2018-04-15T17:35:36.327Z,65.30
2018-04-15T17:38:09.925Z,65.40
2018-04-15T17:40:43.514Z,69.10
2018-04-15T17:43:17.068Z,70.50
2018-04-15T17:45:50.634Z,71.00
2018-04-15T17:48:24.262Z,70.50
2018-04-15T17:50:57.953Z,71.40
2018-04-15T17:53:31.530Z,71.10
2018-04-15T17:56:05.094Z,71.60
2018-04-15T17:58:39.579Z,73.70
2018-04-15T18:01:13.216Z,73.60
2018-04-15T18:03:46.845Z,74.10
2018-04-15T18:06:21.272Z,75.70
2018-04-15T18:08:54.844Z,75.60
2018-04-15T18:11:28.596Z,75.90
2018-04-15T18:14:02.136Z,77.90
2018-04-15T18:16:35.705Z,77.60
2018-04-15T18:19:09.819Z,77.00
2018-04-15T18:21:43.480Z,79.10
2018-04-15T18:24:17.051Z,79.20
2018-04-15T18:26:50.698Z,79.60
2018-04-15T18:29:25.202Z,83.50
2018-04-15T18:31:58.973Z,83.50
2018-04-15T18:34:32.611Z,83.30
2018-04-15T18:37:06.246Z,84.60
2018-04-15T18:39:39.919Z,86.40
2018-04-15T18:42:14.255Z,88.00
2018-04-15T18:44:47.761Z,87.90
2018-04-15T18:47:21.380Z,86.70
2018-04-15T18:49:55.376Z,86.50
2018-04-15T18:52:28.947Z,86.90
2018-04-15T18:55:02.548Z,87.60
2018-04-15T18:57:36.127Z,88.30
2018-04-15T19:00:09.680Z,90.80
2018-04-15T19:02:43.248Z,93.10
2018-04-15T19:05:16.859Z,93.90
2018-04-15T19:07:50.486Z,93.70
2018-04-15T19:10:24.164Z,93.10
2018-04-15T19:12:57.751Z,92.40
2018-04-15T19:15:31.353Z,92.40
2018-04-15T19:18:04.880Z,92.30
2018-04-15T19:20:38.457Z,92.30
2018-04-15T19:23:12.034Z,92.10
2018-04-15T19:25:45.673Z,92.10
2018-04-15T19:28:19.170Z,92.00
2018-04-15T19:30:52.747Z,92.00
2018-04-15T19:33:26.346Z,92.00
2018-04-15T19:36:00.685Z,94.80
2018-04-15T19:38:35.001Z,94.90
2018-04-15T19:41:08.587Z,94.90
2018-04-15T19:43:42.131Z,94.50
2018-04-15T19:46:15.697Z,94.70
2018-04-15T19:48:50.020Z,95.80
2018-04-15T19:51:23.691Z,95.80
2018-04-15T19:53:57.397Z,95.90
2018-04-15T19:56:30.995Z,95.90
2018-04-15T19:59:04.534Z,95.80
2018-04-15T20:01:38.097Z,96.20
2018-04-15T20:04:11.695Z,96.20
2018-04-15T20:06:45.379Z,96.10
2018-04-15T20:09:19.048Z,95.90
2018-04-15T20:11:52.597Z,95.90
2018-04-15T20:14:26.427Z,95.70
2018-04-15T20:17:00.159Z,95.30
2018-04-15T20:19:33.717Z,95.10
2018-04-15T20:22:07.231Z,95.10
2018-04-15T20:24:41.588Z,94.90
2018-04-15T20:27:15.963Z,96.00
2018-04-15T20:29:49.520Z,96.00
2018-04-15T20:32:23.088Z,97.00
2018-04-15T20:34:56.648Z,97.60
2018-04-15T20:37:30.239Z,98.70
2018-04-15T20:40:04.288Z,99.90
2018-04-15T20:42:37.880Z,99.90
2018-04-15T20:45:12.194Z,99.90
2018-04-15T20:47:45.843Z,99.90
2018-04-15T20:50:20.227Z,99.90
2018-04-15T20:52:53.800Z,99.90
2018-04-15T20:55:27.506Z,99.90
2018-04-15T20:58:01.101Z,99.90
2018-04-15T21:00:34.692Z,99.90
2018-04-15T21:03:09.042Z,99.90
2018-04-15T21:05:42.715Z,99.90
2018-04-15T21:08:16.254Z,99.90
2018-04-15T21:10:49.864Z,99.90
2018-04-15T21:13:23.454Z,99.90
2018-04-15T21:15:56.961Z,99.90
2018-04-15T21:18:30.527Z,99.90
2018-04-15T21:21:04.145Z,99.90
2018-04-15T21:23:37.716Z,99.90
2018-04-15T21:26:11.290Z,99.90
2018-04-15T21:28:45.653Z,99.90
2018-04-15T21:31:20.104Z,99.90
2018-04-15T21:33:53.789Z,99.90
2018-04-15T21:36:28.103Z,99.90
2018-04-15T21:39:01.693Z,99.90
2018-04-15T21:41:35.312Z,99.90
2018-04-15T21:44:08.986Z,99.90
2018-04-15T21:46:42.619Z,99.90
2018-04-15T21:49:16.274Z,99.90
2018-04-15T21:51:50.732Z,99.90
2018-04-15T21:54:24.268Z,99.90
2018-04-15T21:56:57.876Z,99.90
2018-04-15T21:59:31.448Z,99.90
2018-04-15T22:02:05.749Z,99.90
2018-04-15T22:04:39.469Z,99.90
2018-04-15T22:07:13.143Z,99.90
2018-04-15T22:09:46.660Z,99.90
2018-04-15T22:12:20.381Z,99.90
2018-04-15T22:14:53.952Z,99.90
2018-04-15T22:17:27.548Z,99.90
2018-04-15T22:20:01.075Z,99.90
2018-04-15T22:22:34.652Z,99.90
2018-04-15T22:25:08.196Z,99.90
2018-04-15T22:27:42.668Z,99.90
2018-04-15T22:30:16.410Z,99.90
2018-04-15T22:32:49.981Z,99.90
2018-04-15T22:35:24.298Z,99.90
2018-04-15T22:37:58.000Z,99.90
2018-04-15T22:40:31.611Z,99.90
2018-04-15T22:43:05.175Z,99.90
2018-04-15T22:45:38.826Z,99.90
2018-04-15T22:48:12.411Z,99.90
2018-04-15T22:50:46.948Z,99.90
2018-04-15T22:53:20.438Z,99.90
2018-04-15T22:55:54.022Z,99.90
2018-04-15T22:58:33.135Z,99.90
2018-04-15T23:01:07.569Z,99.90
2018-04-15T23:03:41.158Z,99.90
2018-04-15T23:06:14.891Z,99.90
2018-04-15T23:08:48.569Z,99.90
2018-04-15T23:11:22.167Z,99.90
2018-04-15T23:13:55.737Z,99.90
2018-04-15T23:16:29.384Z,99.90
2018-04-15T23:19:03.106Z,99.90
2018-04-15T23:21:36.696Z,99.90
2018-04-15T23:24:10.232Z,99.90
2018-04-15T23:26:43.788Z,99.90
2018-04-15T23:29:17.354Z,99.90
2018-04-15T23:31:50.915Z,99.90
2018-04-15T23:34:25.218Z,99.90
2018-04-15T23:36:59.035Z,99.90
2018-04-15T23:39:33.457Z,99.90
2018-04-15T23:42:07.021Z,99.90
